Time;durP1;ratioP1;P1;durP2;ratioP2;P2;SDS_P1;SDS_P2;PMS_P1;PMS_P2;Temp;Humidity;BMP_temperature;BMP_pressure;BME280_temperature;BME280_humidity;BME280_pressure;Samples;Min_cycle;Max_cycle;Signal;HPM_P1;HPM_P2
2022/12/09 00:00:43;;;;;;;9.48;4.18;;;;;;;4.98;100.00;94537.53;5150842;27;20200;-74
2022/12/09 00:03:10;;;;;;;12.68;3.70;;;;;;;5.06;100.00;94534.16;5151007;27;20208;-73
2022/12/09 00:05:39;;;;;;;6.90;3.78;;;;;;;5.09;100.00;94522.03;5150130;27;20854;-75
2022/12/09 00:08:07;;;;;;;9.18;4.88;;;;;;;5.04;100.00;94504.16;5150490;27;20208;-75
2022/12/09 00:10:34;;;;;;;7.28;4.47;;;;;;;4.94;100.00;94531.94;5149735;27;20252;-75
2022/12/09 00:13:00;;;;;;;6.80;3.38;;;;;;;4.98;100.00;94542.91;5150675;27;20208;-75
2022/12/09 00:15:27;;;;;;;6.18;4.63;;;;;;;4.98;100.00;94526.78;5151102;27;20208;-74
2022/12/09 00:17:54;;;;;;;5.72;3.53;;;;;;;5.12;100.00;94537.56;5150879;27;20205;-73
2022/12/09 00:20:20;;;;;;;7.90;3.70;;;;;;;5.07;100.00;94535.75;5150227;27;20208;-73
2022/12/09 00:22:47;;;;;;;6.50;4.28;;;;;;;5.12;100.00;94535.66;5148842;27;20212;-74
2022/12/09 00:25:15;;;;;;;5.47;3.45;;;;;;;5.23;100.00;94544.34;5129820;27;20605;-74
2022/12/09 00:27:42;;;;;;;9.20;5.05;;;;;;;4.94;100.00;94542.69;5131331;27;20205;-74
2022/12/09 00:30:09;;;;;;;8.63;4.03;;;;;;;5.08;100.00;94550.78;5141751;27;20728;-74
2022/12/09 00:32:36;;;;;;;12.80;4.80;;;;;;;5.22;100.00;94554.28;5129546;27;20723;-74
2022/12/09 00:35:04;;;;;;;7.20;4.47;;;;;;;5.32;100.00;94531.84;5129917;27;20276;-75
2022/12/09 00:37:31;;;;;;;5.75;3.60;;;;;;;5.38;100.00;94533.31;5129034;27;20197;-75
2022/12/09 00:39:57;;;;;;;5.95;4.57;;;;;;;5.37;100.00;94537.09;5129216;27;20200;-73
2022/12/09 00:42:25;;;;;;;8.02;5.15;;;;;;;5.33;100.00;94528.84;5129613;27;20254;-73
2022/12/09 00:44:52;;;;;;;9.15;4.15;;;;;;;5.35;100.00;94525.84;5138675;27;20204;-74
2022/12/09 00:47:19;;;;;;;9.30;4.90;;;;;;;5.49;100.00;94537.41;5135789;27;20233;-74
2022/12/09 00:49:46;;;;;;;7.57;3.67;;;;;;;5.63;100.00;94538.22;5149790;27;20196;-73
2022/12/09 00:52:12;;;;;;;7.95;3.65;;;;;;;5.70;100.00;94544.00;5136398;27;20204;-73
2022/12/09 00:54:39;;;;;;;7.15;4.32;;;;;;;5.62;100.00;94542.00;5150165;27;20208;-75
2022/12/09 00:57:06;;;;;;;6.47;2.90;;;;;;;5.66;100.00;94536.81;5150349;27;20208;-74
2022/12/09 00:59:34;;;;;;;12.50;5.05;;;;;;;5.38;100.00;94527.16;5150237;27;20197;-73
2022/12/09 01:02:01;;;;;;;5.45;3.28;;;;;;;5.24;100.00;94529.81;5150405;27;20208;-73
2022/12/09 01:04:27;;;;;;;7.93;3.65;;;;;;;5.36;100.00;94533.63;5139828;27;20209;-75
2022/12/09 01:06:54;;;;;;;9.93;4.80;;;;;;;5.46;100.00;94537.22;5130127;27;20236;-73
2022/12/09 01:09:21;;;;;;;5.43;3.20;;;;;;;5.43;100.00;94532.44;5133607;27;20600;-75
2022/12/09 01:11:48;;;;;;;17.45;5.35;;;;;;;5.45;100.00;94520.31;5132602;27;20563;-73
2022/12/09 01:14:15;;;;;;;7.13;2.97;;;;;;;5.43;100.00;94503.69;5133252;27;20251;-75
2022/12/09 01:16:43;;;;;;;7.90;5.18;;;;;;;5.46;100.00;94505.78;5147143;27;20261;-75
2022/12/09 01:19:14;;;;;;;7.65;4.40;;;;;;;5.44;100.00;94512.53;5132687;27;20208;-74
2022/12/09 01:21:40;;;;;;;9.43;3.83;;;;;;;5.56;100.00;94505.59;5132939;27;20259;-74
2022/12/09 01:24:09;;;;;;;13.27;4.03;;;;;;;5.41;100.00;94515.81;5133543;27;20254;-74
2022/12/09 01:26:36;;;;;;;12.02;4.60;;;;;;;5.51;100.00;94519.09;5132824;27;20293;-74
2022/12/09 01:29:03;;;;;;;7.85;4.03;;;;;;;5.49;100.00;94526.66;5131991;27;20246;-74
2022/12/09 01:31:29;;;;;;;11.85;4.35;;;;;;;5.44;100.00;94512.53;5146192;27;20212;-74
2022/12/09 01:33:57;;;;;;;12.70;4.90;;;;;;;5.51;100.00;94502.97;5132181;27;20265;-74
2022/12/09 01:36:29;;;;;;;6.30;3.92;;;;;;;5.49;100.00;94520.50;5131836;27;20725;-73
2022/12/09 01:38:58;;;;;;;6.53;3.53;;;;;;;5.36;100.00;94533.63;5132363;27;20193;-73
2022/12/09 01:41:26;;;;;;;5.03;3.20;;;;;;;5.43;100.00;94527.88;5132446;27;20209;-74
2022/12/09 01:44:17;;;;;;;5.40;3.60;;;;;;;5.46;100.00;94515.75;5146480;27;20563;-74
2022/12/09 01:46:45;;;;;;;9.05;4.72;;;;;;;5.41;100.00;94515.81;5132175;27;20221;-74
2022/12/09 01:49:19;;;;;;;9.45;5.05;;;;;;;5.44;100.00;94518.72;5132399;27;20605;-74
2022/12/09 01:51:52;;;;;;;7.35;4.07;;;;;;;5.53;100.00;94508.88;5145581;27;20196;-73
2022/12/09 01:54:20;;;;;;;8.82;4.93;;;;;;;5.56;100.00;94508.28;5153356;27;20204;-75
2022/12/09 01:56:47;;;;;;;11.35;5.53;;;;;;;5.53;100.00;94506.19;5153040;27;20631;-75
2022/12/09 01:59:15;;;;;;;9.38;4.05;;;;;;;5.46;100.00;94505.78;5152738;27;20604;-73
2022/12/09 02:01:45;;;;;;;10.45;4.45;;;;;;;5.51;100.00;94515.63;5152229;27;20671;-74
2022/12/09 02:04:13;;;;;;;7.68;4.43;;;;;;;5.49;100.00;94513.22;5153300;27;20200;-74
2022/12/09 02:06:40;;;;;;;8.70;4.03;;;;;;;5.48;100.00;94517.00;5137495;27;20228;-74
2022/12/09 02:09:08;;;;;;;6.60;4.18;;;;;;;5.49;100.00;94499.78;5132288;27;20216;-74
2022/12/09 02:11:46;;;;;;;4.60;2.90;;;;;;;5.59;100.00;94499.63;5145320;27;20200;-74
2022/12/09 02:14:18;;;;;;;7.45;4.00;;;;;;;5.63;100.00;94505.97;5131850;27;20204;-74
2022/12/09 02:16:52;;;;;;;7.47;3.22;;;;;;;5.72;100.00;94498.03;5131595;27;20732;-75
2022/12/09 02:19:38;;;;;;;5.20;3.25;;;;;;;5.64;100.00;94496.00;5131419;27;20286;-74
2022/12/09 02:22:08;;;;;;;7.10;4.10;;;;;;;5.69;100.00;94491.34;5139842;27;20224;-74
2022/12/09 02:24:41;;;;;;;5.55;3.40;;;;;;;5.53;100.00;94484.69;5135809;27;20265;-75
2022/12/09 02:27:16;;;;;;;6.93;3.45;;;;;;;5.35;100.00;94483.69;5131815;27;20216;-74
2022/12/09 02:30:08;;;;;;;7.88;3.85;;;;;;;5.27;100.00;94502.38;5131320;27;20644;-74
2022/12/09 02:33:08;;;;;;;6.43;3.92;;;;;;;5.29;100.00;94492.16;5131600;27;20293;-73
2022/12/09 02:35:42;;;;;;;14.73;5.45;;;;;;;5.34;100.00;94489.34;5131132;27;20502;-73
2022/12/09 02:38:11;;;;;;;9.70;5.47;;;;;;;5.29;100.00;94494.84;5131128;27;20281;-74
2022/12/09 02:40:45;;;;;;;4.22;2.65;;;;;;;5.22;100.00;94484.47;5131568;27;20208;-74
2022/12/09 02:43:14;;;;;;;9.52;4.45;;;;;;;5.13;100.00;94490.81;5131237;27;20257;-74
2022/12/09 02:45:43;;;;;;;4.18;3.33;;;;;;;5.28;100.00;94514.72;5131223;27;20608;-75
2022/12/09 02:48:13;;;;;;;8.00;4.38;;;;;;;5.27;100.00;94515.81;5131201;27;20215;-74
2022/12/09 02:50:44;;;;;;;7.43;4.38;;;;;;;5.27;100.00;94523.88;5134044;27;20197;-74
2022/12/09 02:53:13;;;;;;;5.35;3.42;;;;;;;5.24;100.00;94529.81;5150873;27;20569;-74
2022/12/09 02:55:43;;;;;;;12.95;4.63;;;;;;;5.21;100.00;94538.47;5151382;27;20264;-74
2022/12/09 02:58:10;;;;;;;9.68;3.58;;;;;;;5.20;100.00;94528.81;5150995;27;20609;-74
2022/12/09 03:00:37;;;;;;;9.77;4.45;;;;;;;5.30;100.00;94523.28;5151818;27;20208;-73
2022/12/09 03:03:08;;;;;;;5.10;2.95;;;;;;;5.30;100.00;94523.28;5151563;27;20199;-75
2022/12/09 03:05:44;;;;;;;6.20;2.90;;;;;;;5.25;100.00;94510.72;5145100;27;20766;-74
2022/12/09 03:08:17;;;;;;;5.78;3.83;;;;;;;5.41;100.00;94519.31;5130045;27;20220;-73
2022/12/09 03:10:53;;;;;;;16.58;4.90;;;;;;;5.34;100.00;94514.31;5130968;27;20200;-74
2022/12/09 03:13:31;;;;;;;7.60;4.30;;;;;;;5.25;100.00;94531.41;5130666;27;20204;-75
2022/12/09 03:16:06;;;;;;;7.10;4.13;;;;;;;5.23;100.00;94528.22;5131267;27;20196;-75
2022/12/09 03:18:35;;;;;;;9.68;5.80;;;;;;;5.29;100.00;94519.00;5130403;27;20217;-73
2022/12/09 03:21:05;;;;;;;11.15;5.53;;;;;;;5.42;100.00;94518.22;5130563;27;20274;-75
2022/12/09 03:23:35;;;;;;;8.13;3.70;;;;;;;5.58;100.00;94502.59;5130359;27;20230;-74
2022/12/09 03:26:06;;;;;;;10.13;4.95;;;;;;;5.45;100.00;94514.94;5144071;27;20509;-74
2022/12/09 03:28:39;;;;;;;4.72;3.42;;;;;;;5.49;100.00;94521.28;5130328;27;20245;-73
2022/12/09 03:31:12;;;;;;;3.67;2.80;;;;;;;5.62;100.00;94512.44;5132435;27;20564;-73
2022/12/09 03:33:42;;;;;;;8.15;3.10;;;;;;;5.71;100.00;94507.19;5141334;27;20204;-73
2022/12/09 03:36:14;;;;;;;8.60;4.13;;;;;;;5.59;100.00;94507.69;5146376;27;20593;-74
2022/12/09 03:38:43;;;;;;;6.10;3.65;;;;;;;5.60;100.00;94501.19;5130524;27;20201;-74
2022/12/09 03:41:18;;;;;;;11.00;4.07;;;;;;;5.65;100.00;94497.59;5138499;27;20252;-74
2022/12/09 03:43:51;;;;;;;6.57;3.97;;;;;;;5.44;100.00;94497.22;5151478;27;20204;-74
2022/12/09 03:46:18;;;;;;;9.18;3.45;;;;;;;5.42;100.00;94494.03;5151208;27;20253;-74
2022/12/09 03:48:45;;;;;;;9.80;3.28;;;;;;;5.46;100.00;94495.03;5150675;27;20196;-74
2022/12/09 03:51:18;;;;;;;3.00;2.67;;;;;;;5.38;100.00;94487.66;5148489;27;20261;-74
2022/12/09 03:53:50;;;;;;;11.13;4.43;;;;;;;5.35;100.00;94505.16;5134444;27;20204;-74
2022/12/09 03:56:21;;;;;;;6.43;2.85;;;;;;;5.23;100.00;94506.75;5129958;27;20605;-75
2022/12/09 03:58:51;;;;;;;6.18;3.00;;;;;;;5.32;100.00;94499.63;5129820;27;20201;-75
2022/12/09 04:01:19;;;;;;;4.75;3.25;;;;;;;5.40;100.00;94506.97;5140027;27;20201;-74
2022/12/09 04:03:49;;;;;;;6.60;3.35;;;;;;;5.49;100.00;94515.91;5132351;27;20201;-74
2022/12/09 04:06:17;;;;;;;7.18;4.15;;;;;;;5.35;100.00;94520.47;5130015;27;20628;-75
2022/12/09 04:08:44;;;;;;;8.30;5.10;;;;;;;5.52;100.00;94520.69;5129595;27;20209;-74
2022/12/09 04:11:11;;;;;;;7.43;4.47;;;;;;;5.38;100.00;94498.41;5132363;27;20351;-74
2022/12/09 04:13:38;;;;;;;5.75;3.40;;;;;;;5.48;100.00;94503.56;5148505;27;20673;-73
2022/12/09 04:16:05;;;;;;;4.82;3.60;;;;;;;5.48;100.00;94505.47;5146175;27;20601;-74
2022/12/09 04:18:32;;;;;;;11.05;3.30;;;;;;;5.55;100.00;94509.38;5140112;27;20253;-75
2022/12/09 04:20:59;;;;;;;5.75;3.40;;;;;;;5.48;100.00;94508.94;5134670;27;20695;-73
2022/12/09 04:23:27;;;;;;;5.25;3.35;;;;;;;5.45;100.00;94504.19;5140587;27;20597;-73
2022/12/09 04:25:54;;;;;;;10.23;2.97;;;;;;;5.60;100.00;94503.88;5140779;27;20196;-73
2022/12/09 04:28:20;;;;;;;5.10;3.33;;;;;;;5.79;100.00;94511.84;5138922;27;20280;-74
2022/12/09 04:30:48;;;;;;;7.35;4.18;;;;;;;5.66;100.00;94510.75;5141402;27;20197;-74
2022/12/09 04:33:14;;;;;;;8.60;4.60;;;;;;;5.64;100.00;94512.94;5132690;27;20205;-74
2022/12/09 04:35:41;;;;;;;13.48;5.22;;;;;;;5.51;100.00;94521.00;5136344;27;20293;-74
2022/12/09 04:38:08;;;;;;;6.95;3.20;;;;;;;5.53;100.00;94511.53;5144053;27;20212;-73
2022/12/09 04:40:37;;;;;;;6.60;4.13;;;;;;;5.53;100.00;94511.53;5143844;27;20259;-74
2022/12/09 04:43:04;;;;;;;20.05;5.95;;;;;;;5.49;100.00;94529.34;5141825;27;20663;-74
2022/12/09 04:45:31;;;;;;;7.55;4.50;;;;;;;5.51;100.00;94519.09;5140653;27;20201;-74
2022/12/09 04:47:58;;;;;;;6.05;4.45;;;;;;;5.34;100.00;94486.66;5154644;27;20249;-74
2022/12/09 04:50:25;;;;;;;7.93;4.38;;;;;;;5.39;100.00;94510.75;5154250;27;20710;-74
2022/12/09 04:52:51;;;;;;;4.70;3.50;;;;;;;5.35;100.00;94513.22;5145737;27;20201;-73
2022/12/09 04:55:18;;;;;;;8.45;4.38;;;;;;;5.38;100.00;94519.91;5147623;27;20241;-75
2022/12/09 04:57:46;;;;;;;12.93;6.00;;;;;;;5.49;100.00;94537.41;5142886;27;20230;-74
2022/12/09 05:00:14;;;;;;;12.18;4.32;;;;;;;5.56;100.00;94527.06;5140060;27;20194;-75
2022/12/09 05:02:41;;;;;;;8.05;3.88;;;;;;;5.45;100.00;94525.69;5144676;27;20208;-74
2022/12/09 05:05:09;;;;;;;5.93;3.03;;;;;;;5.51;100.00;94523.69;5136033;27;20277;-74
2022/12/09 05:07:35;;;;;;;10.80;4.50;;;;;;;5.50;100.00;94516.72;5144839;27;20615;-74
2022/12/09 05:10:02;;;;;;;9.18;4.63;;;;;;;5.61;100.00;94529.66;5146897;27;20209;-75
2022/12/09 05:12:29;;;;;;;4.40;2.90;;;;;;;5.56;100.00;94516.31;5143763;27;20200;-73
2022/12/09 05:14:57;;;;;;;5.80;2.72;;;;;;;5.46;100.00;94516.53;5140476;27;20193;-71
2022/12/09 05:17:24;;;;;;;11.40;5.20;;;;;;;5.49;100.00;94518.59;5144189;27;20219;-74
2022/12/09 05:19:51;;;;;;;13.93;5.80;;;;;;;5.47;100.00;94512.72;5143002;27;20579;-73
2022/12/09 05:22:18;;;;;;;11.60;6.38;;;;;;;5.45;100.00;94493.44;5132663;27;20212;-74
2022/12/09 05:24:45;;;;;;;6.85;4.28;;;;;;;5.55;100.00;94522.78;5133063;27;20628;-73
2022/12/09 05:27:12;;;;;;;10.90;4.45;;;;;;;5.48;100.00;94524.28;5143515;27;20224;-74
2022/12/09 05:29:39;;;;;;;12.18;2.92;;;;;;;5.31;100.00;94498.03;5139653;27;20656;-73
2022/12/09 05:32:08;;;;;;;16.38;4.70;;;;;;;5.39;100.00;94513.44;5141949;27;20230;-73
2022/12/09 05:34:34;;;;;;;10.65;5.13;;;;;;;5.29;100.00;94521.69;5136805;27;20665;-74
2022/12/09 05:37:01;;;;;;;8.65;4.50;;;;;;;5.32;100.00;94521.09;5140102;27;20201;-74
2022/12/09 05:39:28;;;;;;;7.45;4.85;;;;;;;5.47;100.00;94518.09;5132149;27;20200;-74
2022/12/09 05:41:55;;;;;;;12.27;6.45;;;;;;;5.57;100.00;94528.66;5131587;27;20245;-74
2022/12/09 05:44:22;;;;;;;14.82;4.97;;;;;;;5.44;100.00;94524.09;5146002;27;20201;-74
2022/12/09 05:46:48;;;;;;;10.80;4.70;;;;;;;5.47;100.00;94539.59;5144699;27;20254;-74
2022/12/09 05:49:16;;;;;;;6.38;3.72;;;;;;;5.49;100.00;94548.16;5133633;27;20204;-74
2022/12/09 05:51:43;;;;;;;6.47;4.20;;;;;;;5.58;100.00;94541.00;5132035;27;20262;-74
2022/12/09 05:54:10;;;;;;;12.50;4.88;;;;;;;5.63;100.00;94526.66;5131304;27;20652;-74
2022/12/09 05:56:37;;;;;;;10.05;5.07;;;;;;;5.66;100.00;94543.00;5132490;27;20200;-74
2022/12/09 05:59:04;;;;;;;11.63;3.88;;;;;;;5.66;100.00;94532.25;5132110;27;20253;-73
2022/12/09 06:01:30;;;;;;;5.70;3.97;;;;;;;5.70;100.00;94511.75;5145668;27;20272;-74
2022/12/09 06:03:57;;;;;;;8.40;4.47;;;;;;;5.72;100.00;94511.47;5131879;27;20779;-74
2022/12/09 06:06:28;;;;;;;14.10;5.63;;;;;;;5.84;100.00;94521.69;5132095;27;20209;-73
2022/12/09 06:08:57;;;;;;;20.30;7.43;;;;;;;5.95;100.00;94517.72;5132076;27;20220;-74
2022/12/09 06:11:24;;;;;;;7.68;4.78;;;;;;;6.07;100.00;94536.81;5131203;27;20234;-74
2022/12/09 06:13:52;;;;;;;7.05;4.57;;;;;;;6.15;100.00;94522.66;5131982;27;20205;-74
2022/12/09 06:16:21;;;;;;;13.30;5.45;;;;;;;6.41;100.00;94525.59;5131583;27;20208;-74
2022/12/09 06:18:48;;;;;;;17.45;7.88;;;;;;;6.50;100.00;94528.34;5131329;27;20621;-75
2022/12/09 06:21:17;;;;;;;13.70;6.78;;;;;;;6.66;100.00;94527.72;5130833;27;20597;-74
2022/12/09 06:23:45;;;;;;;6.85;4.18;;;;;;;6.70;100.00;94538.63;5131931;27;20196;-73
2022/12/09 06:26:16;;;;;;;13.52;5.97;;;;;;;6.78;100.00;94529.84;5131640;27;20258;-73
2022/12/09 06:28:43;;;;;;;14.80;6.93;;;;;;;6.97;100.00;94532.38;5131809;27;20290;-74
2022/12/09 06:31:10;;;;;;;14.32;6.65;;;;;;;6.96;100.00;94536.97;5131724;27;20308;-74
2022/12/09 06:33:37;;;;;;;10.93;4.57;;;;;;;6.93;100.00;94536.75;5131379;27;20431;-74
2022/12/09 06:36:05;;;;;;;11.68;6.40;;;;;;;6.89;100.00;94539.25;5134410;27;20281;-73
2022/12/09 06:38:31;;;;;;;19.58;9.70;;;;;;;6.77;100.00;94555.97;5141511;27;20289;-74
2022/12/09 06:41:00;;;;;;;15.45;7.20;;;;;;;6.80;100.00;94548.38;5131559;27;20597;-74
2022/12/09 06:43:26;;;;;;;28.75;6.25;;;;;;;6.88;100.00;94555.72;5131502;27;20201;-74
2022/12/09 06:45:53;;;;;;;16.65;6.55;;;;;;;6.92;100.00;94560.19;5131397;27;20209;-74
2022/12/09 06:48:20;;;;;;;13.88;6.95;;;;;;;7.04;100.00;94565.81;5131271;27;20281;-74
2022/12/09 06:50:47;;;;;;;27.00;6.82;;;;;;;7.25;100.00;94566.09;5136242;27;20211;-74
2022/12/09 06:53:13;;;;;;;15.02;8.65;;;;;;;7.19;100.00;94561.97;5151552;27;20624;-73
2022/12/09 06:55:40;;;;;;;11.82;5.70;;;;;;;7.30;100.00;94562.50;5151767;27;20204;-74
2022/12/09 06:58:08;;;;;;;11.38;6.07;;;;;;;7.49;100.00;94563.88;5151963;27;20204;-74
2022/12/09 07:00:35;;;;;;;14.23;7.75;;;;;;;7.56;100.00;94571.53;5151366;27;20449;-74
2022/12/09 07:03:02;;;;;;;15.55;7.03;;;;;;;7.47;100.00;94557.22;5151998;27;20204;-74
2022/12/09 07:05:29;;;;;;;10.25;5.97;;;;;;;7.51;100.00;94555.50;5151141;27;20244;-74
2022/12/09 07:07:55;;;;;;;11.95;5.80;;;;;;;7.55;100.00;94559.13;5151844;27;20285;-73
2022/12/09 07:10:22;;;;;;;10.90;6.85;;;;;;;7.33;100.00;94556.50;5132027;27;20660;-74
2022/12/09 07:12:49;;;;;;;11.55;6.43;;;;;;;7.17;100.00;94556.09;5131174;27;20201;-74
2022/12/09 07:15:17;;;;;;;9.50;6.30;;;;;;;7.03;100.00;94558.84;5131255;27;20589;-74
2022/12/09 07:17:44;;;;;;;9.50;5.03;;;;;;;7.14;100.00;94554.78;5130062;27;20212;-74
2022/12/09 07:20:11;;;;;;;10.18;5.72;;;;;;;7.28;100.00;94567.41;5130869;27;20558;-74
2022/12/09 07:22:38;;;;;;;17.35;5.53;;;;;;;7.35;100.00;94565.06;5130333;27;20262;-74
2022/12/09 07:25:05;;;;;;;12.55;6.10;;;;;;;7.31;100.00;94558.69;5131245;27;20249;-74
2022/12/09 07:27:32;;;;;;;9.65;5.97;;;;;;;7.16;100.00;94556.38;5130248;27;20368;-74
2022/12/09 07:29:59;;;;;;;10.60;5.60;;;;;;;7.33;100.00;94576.16;5130232;27;20261;-74
2022/12/09 07:32:27;;;;;;;17.95;5.30;;;;;;;7.34;100.00;94558.09;5131146;27;20205;-73
2022/12/09 07:34:54;;;;;;;17.40;9.15;;;;;;;7.20;100.00;94551.97;5136918;27;20231;-72
2022/12/09 07:37:20;;;;;;;20.73;6.22;;;;;;;7.12;100.00;94551.59;5151096;27;20203;-73
2022/12/09 07:39:47;;;;;;;15.50;8.45;;;;;;;7.38;100.00;94567.16;5129519;27;20208;-73
2022/12/09 07:42:14;;;;;;;14.38;7.95;;;;;;;7.57;100.00;94570.41;5130173;27;20609;-74
2022/12/09 07:44:40;;;;;;;11.88;6.07;;;;;;;7.71;100.00;94564.94;5143291;27;20726;-73
2022/12/09 07:47:07;;;;;;;17.33;6.43;;;;;;;8.07;100.00;94553.94;5130109;27;20246;-75
2022/12/09 07:49:35;;;;;;;11.13;5.63;;;;;;;8.14;99.50;94543.50;5130023;27;20254;-74
2022/12/09 07:52:02;;;;;;;10.48;5.30;;;;;;;8.20;98.52;94553.03;5145474;27;20227;-74
2022/12/09 07:54:29;;;;;;;19.70;6.82;;;;;;;8.29;97.30;94553.84;5150852;27;20208;-73
2022/12/09 07:56:55;;;;;;;14.73;6.70;;;;;;;8.15;96.92;94545.88;5150224;27;20208;-74
2022/12/09 07:59:22;;;;;;;19.92;8.35;;;;;;;8.22;97.50;94545.41;5150469;27;20581;-74
2022/12/09 08:01:49;;;;;;;13.98;6.70;;;;;;;8.10;97.57;94545.22;5150562;27;20261;-73
2022/12/09 08:04:16;;;;;;;30.55;7.93;;;;;;;8.38;97.73;94560.09;5150107;27;20200;-74
2022/12/09 08:06:44;;;;;;;13.75;7.70;;;;;;;8.18;97.71;94544.47;5150522;27;20207;-73
2022/12/09 08:09:13;;;;;;;21.10;7.97;;;;;;;8.24;96.99;94537.81;5150806;27;20284;-74
2022/12/09 08:11:40;;;;;;;12.05;7.22;;;;;;;8.28;97.51;94544.16;5150958;27;20539;-74
2022/12/09 08:14:10;;;;;;;14.63;7.13;;;;;;;8.52;96.75;94555.34;5150751;27;20208;-75
2022/12/09 08:16:37;;;;;;;11.63;6.20;;;;;;;8.82;94.40;94558.22;5135176;27;20216;-74
2022/12/09 08:19:03;;;;;;;11.90;5.45;;;;;;;8.92;93.84;94563.28;5133791;27;20205;-75
2022/12/09 08:21:32;;;;;;;19.38;7.63;;;;;;;9.03;93.39;94575.38;5134257;27;20312;-74
2022/12/09 08:24:04;;;;;;;11.88;6.63;;;;;;;8.91;94.16;94572.50;5134296;27;20352;-75
2022/12/09 08:26:31;;;;;;;19.27;10.27;;;;;;;9.27;93.96;94575.69;5134327;27;20205;-75
2022/12/09 08:28:58;;;;;;;24.73;13.23;;;;;;;9.36;92.32;94572.16;5134222;27;20293;-74
2022/12/09 08:31:26;;;;;;;25.77;12.98;;;;;;;9.21;93.87;94559.94;5134161;27;20227;-75
2022/12/09 08:33:53;;;;;;;20.63;8.27;;;;;;;9.37;94.26;94579.94;5133725;27;20209;-73
2022/12/09 08:36:22;;;;;;;14.52;7.90;;;;;;;9.20;93.44;94564.53;5138484;27;20284;-74
2022/12/09 08:38:49;;;;;;;15.43;8.48;;;;;;;9.36;95.01;94555.94;5142289;27;20558;-75
2022/12/09 08:41:19;;;;;;;33.85;11.75;;;;;;;9.45;92.72;94548.59;5133468;27;20269;-74
2022/12/09 08:43:47;;;;;;;15.70;7.47;;;;;;;9.33;91.89;94534.94;5133555;27;20200;-73
2022/12/09 08:46:14;;;;;;;12.35;6.15;;;;;;;9.61;93.24;94549.66;5133641;27;20257;-73
2022/12/09 08:48:42;;;;;;;14.60;7.95;;;;;;;9.76;91.54;94527.50;5133771;27;20278;-73
2022/12/09 08:51:10;;;;;;;21.45;7.40;;;;;;;9.98;91.04;94527.22;5141318;27;20204;-73
2022/12/09 08:53:37;;;;;;;33.53;16.80;;;;;;;10.13;89.28;94533.22;5154491;27;20233;-73
2022/12/09 08:56:09;;;;;;;35.05;14.60;;;;;;;10.51;88.12;94515.03;5154391;27;20253;-73
2022/12/09 08:58:37;;;;;;;19.58;8.50;;;;;;;10.68;86.27;94509.47;5153419;27;20264;-73
2022/12/09 09:01:04;;;;;;;26.40;14.00;;;;;;;10.67;86.97;94502.47;5144490;27;20197;-74
2022/12/09 09:03:31;;;;;;;13.45;7.53;;;;;;;10.34;86.30;94490.78;5132562;27;20679;-73
2022/12/09 09:06:01;;;;;;;12.25;5.93;;;;;;;10.76;87.62;94493.50;5132395;27;20262;-73
2022/12/09 09:08:28;;;;;;;25.33;11.65;;;;;;;11.16;83.66;94486.41;5133154;27;20279;-73
2022/12/09 09:10:55;;;;;;;31.65;11.65;;;;;;;10.92;84.21;94487.13;5132886;27;20270;-74
2022/12/09 09:13:22;;;;;;;13.52;6.68;;;;;;;10.97;84.64;94477.97;5132897;27;20201;-74
2022/12/09 09:15:50;;;;;;;20.02;10.85;;;;;;;10.68;83.68;94466.13;5143734;27;20723;-74
2022/12/09 09:18:17;;;;;;;24.70;10.38;;;;;;;10.58;82.34;94463.81;5135526;27;20197;-74
2022/12/09 09:20:46;;;;;;;19.80;9.43;;;;;;;10.66;83.42;94468.38;5132613;27;20224;-73
2022/12/09 09:23:13;;;;;;;22.33;11.15;;;;;;;10.80;82.19;94472.72;5132965;27;20331;-73
2022/12/09 09:25:41;;;;;;;23.10;9.93;;;;;;;10.43;82.65;94467.13;5132864;27;20573;-73
2022/12/09 09:28:08;;;;;;;23.20;9.35;;;;;;;10.25;83.26;94468.41;5131483;27;20312;-73
2022/12/09 09:30:35;;;;;;;22.67;9.93;;;;;;;10.52;83.63;94457.00;5132852;27;20205;-73
2022/12/09 09:33:03;;;;;;;21.40;8.77;;;;;;;10.37;82.71;94460.34;5133053;27;20205;-73
2022/12/09 09:35:30;;;;;;;21.13;8.85;;;;;;;10.59;82.03;94451.06;5144638;27;20229;-73
2022/12/09 09:37:57;;;;;;;16.35;7.80;;;;;;;10.48;81.76;94449.91;5134159;27;20201;-73
2022/12/09 09:40:25;;;;;;;22.08;8.82;;;;;;;10.41;82.48;94439.56;5132387;27;20228;-73
2022/12/09 09:42:53;;;;;;;17.45;7.13;;;;;;;10.21;83.35;94446.59;5132526;27;20205;-74
2022/12/09 09:45:23;;;;;;;29.45;7.68;;;;;;;10.55;81.98;94433.91;5132054;27;20250;-73
2022/12/09 09:47:53;;;;;;;19.10;7.45;;;;;;;10.69;80.84;94412.72;5139655;27;20217;-73
2022/12/09 09:50:29;;;;;;;14.25;7.22;;;;;;;11.16;80.19;94437.63;5151803;27;20249;-73
2022/12/09 09:52:56;;;;;;;15.60;6.85;;;;;;;11.28;78.77;94407.81;5132489;27;20257;-75
2022/12/09 09:55:33;;;;;;;20.25;8.00;;;;;;;11.07;78.92;94407.06;5131958;27;20266;-74
2022/12/09 09:58:12;;;;;;;16.27;7.53;;;;;;;11.09;79.83;94409.47;5132492;27;20969;-74
2022/12/09 10:00:48;;;;;;;29.70;9.48;;;;;;;11.25;78.31;94407.69;5132124;27;20193;-73
2022/12/09 10:03:26;;;;;;;31.35;9.15;;;;;;;11.62;78.69;94395.72;5131867;27;20241;-73
2022/12/09 10:05:58;;;;;;;19.92;9.13;;;;;;;11.55;78.62;94389.28;5132089;27;20200;-73
2022/12/09 10:08:38;;;;;;;23.58;8.50;;;;;;;11.87;77.11;94385.69;5131758;27;20254;-73
2022/12/09 10:11:16;;;;;;;26.13;8.40;;;;;;;11.52;76.34;94373.69;5132120;27;20707;-74
2022/12/09 10:13:47;;;;;;;15.65;7.47;;;;;;;11.14;78.66;94361.25;5131841;27;20656;-74
2022/12/09 10:16:18;;;;;;;36.28;9.00;;;;;;;11.20;78.74;94378.91;5132224;27;20548;-74
2022/12/09 10:19:01;;;;;;;17.88;9.75;;;;;;;11.22;78.43;94373.91;5139182;27;20197;-73
2022/12/09 10:21:31;;;;;;;26.40;12.30;;;;;;;10.84;79.65;94376.09;5152781;27;20307;-74
2022/12/09 10:24:02;;;;;;;25.88;12.23;;;;;;;11.01;78.72;94370.50;5141046;27;20197;-72
2022/12/09 10:26:31;;;;;;;29.20;13.32;;;;;;;10.86;78.91;94357.59;5132084;27;20427;-73
2022/12/09 10:29:06;;;;;;;24.65;13.07;;;;;;;11.11;78.62;94359.22;5131681;27;20240;-73
2022/12/09 10:31:33;;;;;;;40.28;15.35;;;;;;;11.03;78.52;94352.78;5132180;27;20249;-74
2022/12/09 10:34:00;;;;;;;33.55;15.30;;;;;;;10.95;78.63;94339.31;5131391;27;20208;-72
2022/12/09 10:36:30;;;;;;;36.58;16.20;;;;;;;10.97;79.36;94342.47;5130842;27;20698;-72
2022/12/09 10:38:56;;;;;;;37.17;18.02;;;;;;;10.93;79.21;94336.16;5131588;27;20208;-73
2022/12/09 10:44:26;;;;;;;40.70;18.23;;;;;;;10.71;80.57;94323.00;5131405;27;20548;-73
2022/12/09 10:47:01;;;;;;;36.72;17.73;;;;;;;11.13;80.25;94335.28;5131551;27;20205;-73
2022/12/09 10:49:29;;;;;;;42.45;18.23;;;;;;;11.05;79.81;94322.63;5130710;27;20636;-73
2022/12/09 10:51:58;;;;;;;52.70;20.33;;;;;;;10.88;79.67;94323.63;5145832;27;20252;-73
2022/12/09 10:54:33;;;;;;;42.17;20.52;;;;;;;10.86;80.70;94325.88;5151990;27;20215;-72
2022/12/09 10:57:06;;;;;;;36.15;19.52;;;;;;;11.02;79.97;94334.94;5151642;27;20659;-74
2022/12/09 10:59:34;;;;;;;39.38;19.58;;;;;;;11.34;78.45;94341.38;5151781;27;20204;-74
2022/12/09 11:02:17;;;;;;;35.58;18.20;;;;;;;10.99;79.23;94302.28;5151872;27;20200;-73
2022/12/09 11:04:45;;;;;;;50.40;22.27;;;;;;;10.89;80.22;94313.56;5151774;27;20208;-73
2022/12/09 11:07:17;;;;;;;42.67;20.35;;;;;;;11.32;79.42;94327.38;5151586;27;20711;-73
2022/12/09 11:09:46;;;;;;;40.33;20.48;;;;;;;11.50;78.22;94332.53;5150759;27;20254;-73
2022/12/09 11:12:19;;;;;;;45.40;19.88;;;;;;;11.33;77.45;94318.13;5151355;27;20612;-72
2022/12/09 11:14:51;;;;;;;45.97;19.23;;;;;;;11.21;78.16;94299.13;5151413;27;20257;-73
2022/12/09 11:17:21;;;;;;;46.40;18.00;;;;;;;10.89;78.97;94297.31;5152111;27;20543;-74
2022/12/09 11:19:51;;;;;;;36.05;14.60;;;;;;;10.62;79.02;94307.66;5151043;27;20290;-74
2022/12/09 11:22:30;;;;;;;45.20;16.30;;;;;;;10.88;79.40;94320.91;5150946;27;20634;-73
2022/12/09 11:25:17;;;;;;;32.58;14.60;;;;;;;11.29;76.80;94321.84;5131018;27;20217;-73
2022/12/09 11:27:49;;;;;;;32.30;14.98;;;;;;;11.26;77.05;94269.06;5131091;27;20212;-73
2022/12/09 11:30:18;;;;;;;33.45;13.63;;;;;;;10.96;76.78;94270.44;5139128;27;20694;-73
2022/12/09 11:33:00;;;;;;;31.88;14.23;;;;;;;11.45;77.46;94302.97;5135357;27;20197;-73
2022/12/09 11:35:37;;;;;;;36.60;13.70;;;;;;;11.84;75.47;94296.81;5130057;27;20225;-73
2022/12/09 11:38:28;;;;;;;33.15;14.85;;;;;;;12.33;74.29;94293.91;5130681;27;20228;-73
2022/12/09 11:41:03;;;;;;;28.05;13.27;;;;;;;12.33;72.91;94269.47;5130535;27;20262;-73